Time;durP1;ratioP1;P1;durP2;ratioP2;P2;SDS_P1;SDS_P2;PMS_P1;PMS_P2;Temp;Humidity;BMP_temperature;BMP_pressure;BME280_temperature;BME280_humidity;BME280_pressure;Samples;Min_cycle;Max_cycle;Signal;HPM_P1;HPM_P2
2022/01/01 00:01:15;;;;;;;12.33;6.13;;;;;;;;;;5102864;28;20660;-82
2022/01/01 00:03:42;;;;;;;11.40;5.17;;;;;;;;;;5097416;28;20225;-81
2022/01/01 00:06:10;;;;;;;10.10;5.13;;;;;;;;;;5103298;28;20216;-81
2022/01/01 00:08:37;;;;;;;15.33;6.83;;;;;;;;;;5087957;28;20272;-82
2022/01/01 00:11:04;;;;;;;10.73;5.53;;;;;;;;;;5081074;28;20212;-82
2022/01/01 00:13:31;;;;;;;12.67;6.00;;;;;;;;;;5083206;28;20675;-81
2022/01/01 00:15:58;;;;;;;10.63;5.10;;;;;;;;;;5082040;28;20216;-81
2022/01/01 00:18:27;;;;;;;13.53;5.37;;;;;;;;;;5086086;28;20348;-81
2022/01/01 00:20:54;;;;;;;12.57;4.93;;;;;;;;;;5086568;28;20217;-81
2022/01/01 00:23:21;;;;;;;13.50;4.93;;;;;;;;;;5089708;28;20233;-82
2022/01/01 00:25:48;;;;;;;12.60;5.23;;;;;;;;;;5095795;28;20201;-81
2022/01/01 00:28:16;;;;;;;12.10;5.47;;;;;;;;;;5092276;28;20225;-82
2022/01/01 00:30:43;;;;;;;11.70;4.63;;;;;;;;;;5092513;28;20229;-81
2022/01/01 00:33:10;;;;;;;14.27;4.90;;;;;;;;;;5086007;28;20256;-80
2022/01/01 00:35:40;;;;;;;9.77;4.87;;;;;;;;;;5089167;28;20205;-81
2022/01/01 00:38:07;;;;;;;16.47;4.80;;;;;;;;;;5105550;28;20216;-81
2022/01/01 00:40:34;;;;;;;13.03;5.13;;;;;;;;;;5096180;28;20291;-81
2022/01/01 00:43:02;;;;;;;14.87;5.60;;;;;;;;;;5092671;28;20201;-81
2022/01/01 00:45:29;;;;;;;10.00;4.73;;;;;;;;;;5092399;28;20646;-83
2022/01/01 00:47:56;;;;;;;15.67;5.83;;;;;;;;;;5089048;28;20222;-81
2022/01/01 00:50:24;;;;;;;16.53;5.73;;;;;;;;;;5086691;28;20665;-81
2022/01/01 00:52:52;;;;;;;14.00;4.93;;;;;;;;;;5087379;28;20727;-81
2022/01/01 00:55:19;;;;;;;15.23;4.87;;;;;;;;;;5087402;28;20241;-82
2022/01/01 00:57:48;;;;;;;15.67;5.30;;;;;;;;;;5086105;28;20230;-82
2022/01/01 01:00:15;;;;;;;13.10;5.70;;;;;;;;;;5095010;28;20680;-82
2022/01/01 01:02:42;;;;;;;10.47;5.57;;;;;;;;;;5090289;28;20293;-82
2022/01/01 01:05:10;;;;;;;17.77;6.00;;;;;;;;;;5092167;28;20592;-82
2022/01/01 01:07:37;;;;;;;11.07;4.93;;;;;;;;;;5091206;28;20278;-82
2022/01/01 01:10:06;;;;;;;12.53;5.47;;;;;;;;;;5087895;28;20233;-81
2022/01/01 01:12:39;;;;;;;16.53;5.40;;;;;;;;;;5084340;28;20277;-82
2022/01/01 01:15:09;;;;;;;9.43;4.63;;;;;;;;;;5084127;28;20202;-82
2022/01/01 01:17:37;;;;;;;14.57;5.07;;;;;;;;;;5087096;28;20237;-81
2022/01/01 01:20:04;;;;;;;12.93;5.43;;;;;;;;;;5088554;28;20640;-82
2022/01/01 01:22:32;;;;;;;14.13;5.07;;;;;;;;;;5085806;28;20297;-81
2022/01/01 01:25:00;;;;;;;13.23;5.10;;;;;;;;;;5083702;28;20209;-81
2022/01/01 01:27:30;;;;;;;13.77;5.10;;;;;;;;;;5084432;28;20924;-83
2022/01/01 01:29:58;;;;;;;11.73;4.63;;;;;;;;;;5086571;28;20639;-85
2022/01/01 01:32:25;;;;;;;15.03;5.63;;;;;;;;;;5085165;28;20726;-84
2022/01/01 01:34:52;;;;;;;16.70;4.80;;;;;;;;;;5084225;28;20221;-80
2022/01/01 01:37:21;;;;;;;14.50;4.83;;;;;;;;;;5083553;28;20225;-81
2022/01/01 01:39:48;;;;;;;18.77;5.70;;;;;;;;;;5079257;28;20558;-82
2022/01/01 01:42:15;;;;;;;16.07;5.00;;;;;;;;;;5081756;28;20208;-81
2022/01/01 01:44:47;;;;;;;12.43;5.03;;;;;;;;;;5081651;28;20202;-83
2022/01/01 01:47:16;;;;;;;10.37;5.10;;;;;;;;;;5081327;28;20237;-82
2022/01/01 01:49:44;;;;;;;15.07;5.23;;;;;;;;;;5081364;28;20206;-82
2022/01/01 01:52:12;;;;;;;19.23;5.23;;;;;;;;;;5079951;28;20540;-83
2022/01/01 01:54:39;;;;;;;13.80;4.60;;;;;;;;;;5081266;28;20214;-84
2022/01/01 01:57:06;;;;;;;9.00;4.33;;;;;;;;;;5081112;28;20233;-82
2022/01/01 01:59:33;;;;;;;13.30;4.70;;;;;;;;;;5078986;28;20292;-82
2022/01/01 02:02:02;;;;;;;14.50;4.77;;;;;;;;;;5080165;28;20290;-83
2022/01/01 02:04:29;;;;;;;12.70;4.37;;;;;;;;;;5082289;28;20203;-81
2022/01/01 02:06:56;;;;;;;15.93;5.17;;;;;;;;;;5079675;28;20254;-82
2022/01/01 02:09:23;;;;;;;11.70;4.37;;;;;;;;;;5080326;28;20660;-83
2022/01/01 02:11:52;;;;;;;18.77;5.40;;;;;;;;;;5081758;28;20669;-81
2022/01/01 02:14:31;;;;;;;11.07;4.93;;;;;;;;;;5080289;28;20689;-83
2022/01/01 02:17:11;;;;;;;16.57;4.87;;;;;;;;;;5081411;28;20443;-83
2022/01/01 02:19:46;;;;;;;15.23;5.27;;;;;;;;;;5082380;28;20250;-81
2022/01/01 02:22:15;;;;;;;12.33;4.87;;;;;;;;;;5080847;28;20212;-81
2022/01/01 02:24:42;;;;;;;13.60;5.23;;;;;;;;;;5080050;28;20220;-81
2022/01/01 02:27:09;;;;;;;10.13;5.37;;;;;;;;;;5078745;28;20309;-81
2022/01/01 02:29:37;;;;;;;15.60;5.23;;;;;;;;;;5079709;28;20198;-81
2022/01/01 02:32:08;;;;;;;17.33;5.70;;;;;;;;;;5081122;28;20298;-81
2022/01/01 02:34:37;;;;;;;12.27;5.50;;;;;;;;;;5080861;28;20218;-82
2022/01/01 02:37:04;;;;;;;20.17;5.60;;;;;;;;;;5081714;28;20302;-81
2022/01/01 02:39:33;;;;;;;11.77;5.27;;;;;;;;;;5081158;28;20210;-82
2022/01/01 02:42:00;;;;;;;14.43;5.50;;;;;;;;;;5084771;28;20668;-81
2022/01/01 02:44:28;;;;;;;15.73;6.10;;;;;;;;;;5079474;28;20209;-81
2022/01/01 02:46:55;;;;;;;12.10;6.13;;;;;;;;;;5079571;28;20313;-81
2022/01/01 02:49:23;;;;;;;12.50;5.13;;;;;;;;;;5083724;28;20202;-81
2022/01/01 02:51:50;;;;;;;15.03;5.80;;;;;;;;;;5081380;28;20200;-82
2022/01/01 02:54:17;;;;;;;12.73;6.33;;;;;;;;;;5082700;28;20257;-81
2022/01/01 02:56:45;;;;;;;16.40;5.83;;;;;;;;;;5080870;28;20233;-82
2022/01/01 02:59:13;;;;;;;18.03;6.97;;;;;;;;;;5078594;28;20204;-81
2022/01/01 03:01:40;;;;;;;10.23;5.30;;;;;;;;;;5078872;28;20205;-81
2022/01/01 03:04:07;;;;;;;11.07;5.40;;;;;;;;;;5080136;28;20213;-83
2022/01/01 03:06:34;;;;;;;19.67;5.07;;;;;;;;;;5080319;28;20528;-82
2022/01/01 03:09:01;;;;;;;11.77;5.13;;;;;;;;;;5082378;28;20701;-83
2022/01/01 03:11:29;;;;;;;16.60;5.40;;;;;;;;;;5079803;28;20198;-82
2022/01/01 03:13:57;;;;;;;15.70;5.43;;;;;;;;;;5082183;28;20218;-82
2022/01/01 03:16:24;;;;;;;12.37;5.50;;;;;;;;;;5082297;28;20206;-82
2022/01/01 03:18:53;;;;;;;16.33;5.80;;;;;;;;;;5092176;28;20208;-83
2022/01/01 03:21:20;;;;;;;12.50;5.60;;;;;;;;;;5097978;28;20244;-80
2022/01/01 03:23:47;;;;;;;11.83;4.80;;;;;;;;;;5088911;28;20585;-81
2022/01/01 03:26:14;;;;;;;13.03;5.10;;;;;;;;;;5084084;28;20206;-83
2022/01/01 03:28:41;;;;;;;10.57;4.97;;;;;;;;;;5081409;28;20208;-83
2022/01/01 03:31:10;;;;;;;11.47;5.33;;;;;;;;;;5082506;28;20212;-82
2022/01/01 03:33:37;;;;;;;11.17;5.60;;;;;;;;;;5082250;28;20222;-81
2022/01/01 03:36:05;;;;;;;12.97;5.17;;;;;;;;;;5084523;28;20269;-81
2022/01/01 03:38:32;;;;;;;13.80;4.77;;;;;;;;;;5081324;28;20228;-81
2022/01/01 03:40:59;;;;;;;10.90;4.77;;;;;;;;;;5079650;28;20702;-82
2022/01/01 03:43:27;;;;;;;10.20;5.10;;;;;;;;;;5080720;28;20397;-83
2022/01/01 03:45:54;;;;;;;12.27;4.57;;;;;;;;;;5079020;28;20206;-81
2022/01/01 03:48:22;;;;;;;10.97;4.90;;;;;;;;;;5081934;28;20229;-82
2022/01/01 03:50:50;;;;;;;7.87;4.30;;;;;;;;;;5081922;28;20213;-81
2022/01/01 03:53:17;;;;;;;16.00;5.13;;;;;;;;;;5084479;28;20214;-82
2022/01/01 03:55:44;;;;;;;11.93;4.20;;;;;;;;;;5083202;28;20366;-81
2022/01/01 03:58:11;;;;;;;11.80;4.07;;;;;;;;;;5082577;28;20239;-82
2022/01/01 04:00:40;;;;;;;12.67;3.97;;;;;;;;;;5085504;28;20213;-82
2022/01/01 04:03:08;;;;;;;7.60;3.50;;;;;;;;;;5087685;28;20206;-82
2022/01/01 04:05:37;;;;;;;11.93;3.43;;;;;;;;;;5083746;28;20534;-81
2022/01/01 04:08:05;;;;;;;11.57;3.93;;;;;;;;;;5083371;28;20312;-82
2022/01/01 04:10:32;;;;;;;9.40;3.50;;;;;;;;;;5085998;28;20205;-82
2022/01/01 04:12:59;;;;;;;10.13;3.80;;;;;;;;;;5085761;28;20224;-81
2022/01/01 04:15:26;;;;;;;15.93;3.60;;;;;;;;;;5084669;28;20228;-81
2022/01/01 04:17:57;;;;;;;12.03;3.53;;;;;;;;;;5084549;28;20538;-81
2022/01/01 04:20:25;;;;;;;8.80;3.57;;;;;;;;;;5085676;28;20210;-82
2022/01/01 04:22:54;;;;;;;10.03;3.43;;;;;;;;;;5082282;28;20209;-81
2022/01/01 04:25:21;;;;;;;10.53;3.43;;;;;;;;;;5082065;28;20621;-81
2022/01/01 04:27:48;;;;;;;7.93;3.20;;;;;;;;;;5080880;28;20309;-81
2022/01/01 04:30:15;;;;;;;13.73;3.43;;;;;;;;;;5083116;28;20289;-81
2022/01/01 04:32:42;;;;;;;8.17;3.07;;;;;;;;;;5080602;28;20198;-81
2022/01/01 04:35:10;;;;;;;10.93;3.33;;;;;;;;;;5082825;28;20233;-80
2022/01/01 04:37:38;;;;;;;13.30;3.70;;;;;;;;;;5081868;28;20230;-81
2022/01/01 04:40:07;;;;;;;10.73;3.53;;;;;;;;;;5083073;28;20236;-80
2022/01/01 04:42:34;;;;;;;11.53;4.17;;;;;;;;;;5082505;28;20297;-80
2022/01/01 04:45:02;;;;;;;9.43;3.97;;;;;;;;;;5084024;28;20214;-80
2022/01/01 04:47:29;;;;;;;7.40;4.13;;;;;;;;;;5084478;28;20224;-81
2022/01/01 04:49:56;;;;;;;8.60;3.33;;;;;;;;;;5081784;28;20603;-81
2022/01/01 04:52:23;;;;;;;10.87;3.70;;;;;;;;;;5083441;28;20199;-82
2022/01/01 04:54:50;;;;;;;11.20;3.30;;;;;;;;;;5080952;28;20589;-81
2022/01/01 04:57:19;;;;;;;9.03;3.60;;;;;;;;;;5082976;28;20597;-82
2022/01/01 04:59:46;;;;;;;14.80;4.60;;;;;;;;;;5085953;28;20671;-80
2022/01/01 05:02:13;;;;;;;15.80;4.93;;;;;;;;;;5087182;28;20204;-80
2022/01/01 05:04:41;;;;;;;15.47;4.33;;;;;;;;;;5082276;28;20194;-80
2022/01/01 05:07:08;;;;;;;13.70;4.30;;;;;;;;;;5083965;28;20249;-81
2022/01/01 05:09:35;;;;;;;12.90;4.70;;;;;;;;;;5082461;28;20597;-80
2022/01/01 05:12:03;;;;;;;20.53;4.40;;;;;;;;;;5081531;28;20615;-81
2022/01/01 05:14:33;;;;;;;11.17;4.03;;;;;;;;;;5082978;28;20226;-81
2022/01/01 05:17:00;;;;;;;11.40;3.93;;;;;;;;;;5085723;28;20287;-81
2022/01/01 05:19:27;;;;;;;12.67;3.90;;;;;;;;;;5084309;28;20202;-81
2022/01/01 05:21:55;;;;;;;11.57;3.97;;;;;;;;;;5083855;28;20201;-81
2022/01/01 05:24:23;;;;;;;10.23;3.83;;;;;;;;;;5081835;28;20263;-81
2022/01/01 05:26:50;;;;;;;12.60;4.37;;;;;;;;;;5084662;28;20640;-80
2022/01/01 05:29:18;;;;;;;13.57;4.20;;;;;;;;;;5082518;28;20626;-80
2022/01/01 05:31:46;;;;;;;15.97;4.33;;;;;;;;;;5083248;28;20207;-81
2022/01/01 05:34:13;;;;;;;10.60;4.47;;;;;;;;;;5082590;28;20221;-80
2022/01/01 05:36:40;;;;;;;14.53;4.60;;;;;;;;;;5082771;28;20229;-81
2022/01/01 05:39:08;;;;;;;11.43;3.53;;;;;;;;;;5084061;28;20201;-80
2022/01/01 05:41:35;;;;;;;12.27;4.03;;;;;;;;;;5082149;28;20201;-81
2022/01/01 05:44:02;;;;;;;12.97;4.80;;;;;;;;;;5084844;28;20206;-80
2022/01/01 05:46:31;;;;;;;12.47;4.30;;;;;;;;;;5082183;28;20202;-80
2022/01/01 05:49:00;;;;;;;12.20;4.27;;;;;;;;;;5084372;28;20207;-80
2022/01/01 05:51:27;;;;;;;13.23;4.13;;;;;;;;;;5082986;28;20213;-81
2022/01/01 05:53:54;;;;;;;8.97;3.80;;;;;;;;;;5084046;28;20265;-81
2022/01/01 05:56:21;;;;;;;12.80;4.07;;;;;;;;;;5082598;28;20228;-81
2022/01/01 05:58:48;;;;;;;8.37;3.67;;;;;;;;;;5081255;28;20198;-81
2022/01/01 06:01:15;;;;;;;11.90;3.47;;;;;;;;;;5079045;28;20237;-80
2022/01/01 06:03:43;;;;;;;18.87;3.90;;;;;;;;;;5079116;28;20204;-81
2022/01/01 06:06:11;;;;;;;10.00;3.90;;;;;;;;;;5085981;28;20208;-82
2022/01/01 06:21:31;;;;;;;15.30;4.73;;;;;;;;;;5060598;28;20241;-86
2022/01/01 06:23:58;;;;;;;18.33;4.60;;;;;;;;;;5046264;28;20804;-85
2022/01/01 07:57:13;;;;;;;14.77;5.00;;;;;;;;;;5060297;28;20233;-78
2022/01/01 07:59:40;;;;;;;9.83;4.20;;;;;;;;;;5061330;28;20206;-78
2022/01/01 08:02:08;;;;;;;17.03;4.80;;;;;;;;;;5064704;28;20194;-78
2022/01/01 08:04:35;;;;;;;18.03;4.40;;;;;;;;;;5053696;28;20322;-78
2022/01/01 08:07:02;;;;;;;13.33;5.90;;;;;;;;;;5050627;28;20290;-77
2022/01/01 08:09:30;;;;;;;13.00;6.37;;;;;;;;;;5047728;28;20211;-78
2022/01/01 08:11:57;;;;;;;19.43;8.03;;;;;;;;;;5048837;28;20735;-77
2022/01/01 08:14:27;;;;;;;20.80;10.27;;;;;;;;;;5049195;28;20230;-77
2022/01/01 08:16:58;;;;;;;18.37;8.27;;;;;;;;;;5047533;28;20199;-78
2022/01/01 08:19:25;;;;;;;21.07;8.23;;;;;;;;;;5048960;28;20199;-77
2022/01/01 08:21:52;;;;;;;21.50;8.13;;;;;;;;;;5049834;28;20311;-77
2022/01/01 08:24:19;;;;;;;13.03;5.63;;;;;;;;;;5047089;28;20273;-78
2022/01/01 08:26:47;;;;;;;10.83;4.90;;;;;;;;;;5055396;28;20274;-79
2022/01/01 08:29:14;;;;;;;11.73;5.17;;;;;;;;;;5052251;28;20199;-80
2022/01/01 08:31:43;;;;;;;10.27;4.00;;;;;;;;;;5061085;28;20687;-79
2022/01/01 08:34:11;;;;;;;12.60;3.40;;;;;;;;;;5056508;28;20298;-80
2022/01/01 08:36:38;;;;;;;7.60;3.43;;;;;;;;;;5063182;28;20333;-79
2022/01/01 08:39:08;;;;;;;11.73;3.10;;;;;;;;;;5057641;28;20203;-79
2022/01/01 08:41:36;;;;;;;8.10;3.30;;;;;;;;;;5054999;28;20743;-80
2022/01/01 08:44:03;;;;;;;13.40;3.33;;;;;;;;;;5056641;28;20238;-79
2022/01/01 08:46:30;;;;;;;12.63;3.23;;;;;;;;;;5058515;28;20283;-78
2022/01/01 08:49:00;;;;;;;7.27;2.90;;;;;;;;;;5056287;28;20286;-78
2022/01/01 08:51:28;;;;;;;15.37;3.43;;;;;;;;;;5052050;28;20292;-80
2022/01/01 08:53:56;;;;;;;13.97;3.17;;;;;;;;;;5050059;28;20253;-79
2022/01/01 08:56:23;;;;;;;12.00;3.20;;;;;;;;;;5055145;28;20288;-79
2022/01/01 08:58:51;;;;;;;7.73;2.50;;;;;;;;;;5052552;28;20208;-78
2022/01/01 09:01:18;;;;;;;8.33;2.80;;;;;;;;;;5049865;28;20293;-78
2022/01/01 09:03:45;;;;;;;11.43;3.47;;;;;;;;;;5053431;28;20326;-81
2022/01/01 09:06:14;;;;;;;9.70;3.27;;;;;;;;;;5050434;28;20208;-79
2022/01/01 09:08:42;;;;;;;11.93;3.43;;;;;;;;;;5060218;28;20207;-79
2022/01/01 09:11:09;;;;;;;7.90;3.53;;;;;;;;;;5055510;28;20605;-80
2022/01/01 09:13:41;;;;;;;11.33;3.40;;;;;;;;;;5054910;28;20310;-80
2022/01/01 09:16:10;;;;;;;8.17;2.90;;;;;;;;;;5055171;28;20284;-79
2022/01/01 09:18:37;;;;;;;12.17;3.60;;;;;;;;;;5055495;28;20203;-81
2022/01/01 09:21:05;;;;;;;7.60;3.23;;;;;;;;;;5053880;28;20213;-79
2022/01/01 09:23:33;;;;;;;8.63;3.60;;;;;;;;;;5055803;28;20243;-80
2022/01/01 09:26:01;;;;;;;9.27;3.23;;;;;;;;;;5053285;28;20720;-78
2022/01/01 09:28:28;;;;;;;11.23;3.67;;;;;;;;;;5056629;28;20267;-79
2022/01/01 09:30:56;;;;;;;13.17;3.80;;;;;;;;;;5054293;28;20207;-79
2022/01/01 09:33:25;;;;;;;10.67;3.90;;;;;;;;;;5055873;28;20290;-79
2022/01/01 09:35:52;;;;;;;7.70;3.60;;;;;;;;;;5057316;28;20269;-79
2022/01/01 09:38:19;;;;;;;8.57;3.30;;;;;;;;;;5056868;28;20222;-79
2022/01/01 09:40:49;;;;;;;11.67;3.63;;;;;;;;;;5055470;28;20227;-78
2022/01/01 09:43:16;;;;;;;10.57;3.90;;;;;;;;;;5058475;28;20222;-80
2022/01/01 09:45:44;;;;;;;10.67;3.93;;;;;;;;;;5059213;28;20203;-79
2022/01/01 09:48:11;;;;;;;9.17;4.33;;;;;;;;;;5058873;28;20231;-79
2022/01/01 09:50:38;;;;;;;9.67;3.43;;;;;;;;;;5058314;28;20467;-79
2022/01/01 09:53:06;;;;;;;13.67;3.60;;;;;;;;;;5061108;28;20207;-80
2022/01/01 09:55:33;;;;;;;9.50;3.40;;;;;;;;;;5057049;28;20226;-80
2022/01/01 09:58:02;;;;;;;11.73;3.70;;;;;;;;;;5058301;28;20220;-79
2022/01/01 10:00:29;;;;;;;9.37;2.97;;;;;;;;;;5053722;28;20207;-79
2022/01/01 10:02:56;;;;;;;9.63;3.23;;;;;;;;;;5058019;28;20314;-79
2022/01/01 10:05:23;;;;;;;6.07;2.80;;;;;;;;;;5058477;28;20275;-80
2022/01/01 10:07:50;;;;;;;11.80;3.40;;;;;;;;;;5058672;28;20381;-79
2022/01/01 10:10:20;;;;;;;6.67;2.87;;;;;;;;;;5064065;28;20214;-80
2022/01/01 10:12:47;;;;;;;7.37;2.60;;;;;;;;;;5061433;28;20199;-79
2022/01/01 10:15:15;;;;;;;6.93;2.80;;;;;;;;;;5062336;28;20350;-79
2022/01/01 10:17:43;;;;;;;6.23;2.90;;;;;;;;;;5057982;28;20192;-79
2022/01/01 10:20:11;;;;;;;8.20;3.33;;;;;;;;;;5052463;28;20212;-79
2022/01/01 10:22:39;;;;;;;10.30;3.00;;;;;;;;;;5048093;28;20631;-80
2022/01/01 10:27:54;;;;;;;8.83;3.10;;;;;;;;;;5041375;28;20312;-80
2022/01/01 10:30:24;;;;;;;7.13;3.10;;;;;;;;;;5057382;28;20362;-79
2022/01/01 10:33:01;;;;;;;6.07;2.80;;;;;;;;;;5054452;28;20668;-80
2022/01/01 10:35:29;;;;;;;7.80;2.80;;;;;;;;;;5055706;28;20243;-79
2022/01/01 10:37:56;;;;;;;10.07;2.50;;;;;;;;;;5055316;28;20242;-79
2022/01/01 10:40:27;;;;;;;8.97;2.83;;;;;;;;;;5050599;28;21673;-80
2022/01/01 10:42:54;;;;;;;8.87;3.20;;;;;;;;;;5055169;28;20203;-80
2022/01/01 10:45:33;;;;;;;7.40;3.30;;;;;;;;;;5052311;28;20522;-80
2022/01/01 10:48:26;;;;;;;6.80;2.63;;;;;;;;;;5055076;28;20266;-80
2022/01/01 10:50:55;;;;;;;8.13;3.40;;;;;;;;;;5049415;28;20215;-79
2022/01/01 10:53:23;;;;;;;9.90;4.90;;;;;;;;;;5054015;28;20222;-79
2022/01/01 10:55:51;;;;;;;13.17;5.67;;;;;;;;;;5055875;28;20219;-81
2022/01/01 10:58:19;;;;;;;8.53;3.37;;;;;;;;;;5053541;28;20203;-80
2022/01/01 11:00:48;;;;;;;10.10;3.47;;;;;;;;;;5049917;28;20208;-78
2022/01/01 11:03:16;;;;;;;6.03;2.80;;;;;;;;;;5053820;28;20223;-79
2022/01/01 11:05:44;;;;;;;8.60;4.57;;;;;;;;;;5061372;28;20200;-79
2022/01/01 11:08:12;;;;;;;13.90;6.43;;;;;;;;;;5055830;28;20207;-78
2022/01/01 11:10:40;;;;;;;11.13;2.93;;;;;;;;;;5058804;28;20263;-78
2022/01/01 11:13:08;;;;;;;6.50;2.90;;;;;;;;;;5054935;28;20231;-78
2022/01/01 11:15:35;;;;;;;4.83;2.53;;;;;;;;;;5048459;28;20307;-78
2022/01/01 11:18:04;;;;;;;5.43;2.73;;;;;;;;;;5049490;28;20217;-78
2022/01/01 11:20:34;;;;;;;7.07;2.60;;;;;;;;;;5050678;28;20199;-80
2022/01/01 11:23:07;;;;;;;4.93;2.50;;;;;;;;;;5056836;28;20207;-81
2022/01/01 11:25:37;;;;;;;5.63;2.70;;;;;;;;;;5056037;28;20248;-79
2022/01/01 11:28:10;;;;;;;14.70;2.77;;;;;;;;;;5047299;28;20210;-80
2022/01/01 11:30:38;;;;;;;5.93;2.67;;;;;;;;;;5045512;28;20294;-80
2022/01/01 12:19:38;;;;;;;7.83;3.47;;;;;;;;;;5132690;22;20311;-81
2022/01/01 12:22:09;;;;;;;11.17;4.57;;;;;;;;;;5113644;28;20657;-82
2022/01/01 12:24:40;;;;;;;6.07;2.80;;;;;;;;;;5107413;28;20200;-81
2022/01/01 12:27:11;;;;;;;6.77;4.13;;;;;;;;;;5112846;28;20266;-81
2022/01/01 12:29:38;;;;;;;8.20;3.40;;;;;;;;;;5093118;28;20285;-81
2022/01/01 12:32:08;;;;;;;9.13;3.37;;;9.80;99.90;;;;;;5091819;28;20225;-81
2022/01/01 12:34:36;;;;;;;10.97;3.63;;;;;;;;;;5091679;28;20201;-81
2022/01/01 12:37:08;;;;;;;6.50;3.27;;;;;;;;;;5094665;28;20642;-81
2022/01/01 12:39:53;;;;;;;8.07;3.53;;;;;;;;;;5091063;28;20728;-83
2022/01/01 12:42:30;;;;;;;8.57;3.37;;;;;;;;;;5086892;28;20201;-82
2022/01/01 12:45:02;;;;;;;7.27;3.67;;;;;;;;;;5091770;28;20568;-80
2022/01/01 12:47:30;;;;;;;9.43;3.90;;;;;;;;;;5089108;28;20213;-81
2022/01/01 12:49:59;;;;;;;7.40;3.93;;;;;;;;;;5092479;28;20259;-83
2022/01/01 12:52:28;;;;;;;6.57;3.50;;;;;;;;;;5094550;28;20256;-81
2022/01/01 12:54:57;;;;;;;11.90;4.00;;;;;;;;;;5092697;28;20198;-83
2022/01/01 12:57:25;;;;;;;8.40;3.60;;;;;;;;;;5097161;28;20377;-83
2022/01/01 12:59:53;;;;;;;7.67;3.40;;;;;;;;;;5091132;28;20228;-83
2022/01/01 13:02:21;;;;;;;8.53;3.60;;;;;;;;;;5088970;28;20198;-83
2022/01/01 13:04:49;;;;;;;7.47;3.87;;;;;;;;;;5091948;28;20231;-83
2022/01/01 13:07:20;;;;;;;6.87;3.57;;;;;;;;;;5094603;28;20718;-84
2022/01/01 13:09:49;;;;;;;10.47;4.27;;;;;;;;;;5092649;28;20540;-83
2022/01/01 13:12:18;;;;;;;7.27;3.83;;;;;;;;;;5094468;28;20580;-82
2022/01/01 13:14:45;;;;;;;8.10;3.50;;;;;;;;;;5092367;28;20235;-83
2022/01/01 13:17:13;;;;;;;7.50;4.07;;;;;;;;;;5090183;28;20587;-81
2022/01/01 13:19:40;;;;;;;9.00;4.20;;;;;;;;;;5094858;28;20208;-83
2022/01/01 13:22:08;;;;;;;6.93;3.50;;;;;;;;;;5093105;28;20205;-83
2022/01/01 13:24:37;;;;;;;9.10;4.13;;;;;;;;;;5094934;28;20228;-83
2022/01/01 13:27:06;;;;;;;6.07;3.50;;;;;;;;;;5095029;28;20205;-83
2022/01/01 13:29:33;;;;;;;15.27;5.23;;;;;;;;;;5093012;28;20209;-84
2022/01/01 13:32:01;;;;;;;10.27;3.80;;;;;;;;;;5094505;28;20200;-83
2022/01/01 13:34:29;;;;;;;9.27;4.30;;;;;;;;;;5092241;28;20206;-83
2022/01/01 13:37:04;;;;;;;8.17;3.77;;;;;;;;;;5094524;28;20225;-84
2022/01/01 13:39:31;;;;;;;8.83;3.53;;;;;;;;;;5095355;28;20232;-81
2022/01/01 13:41:59;;;;;;;9.70;3.20;;;;;;;;;;5087764;28;20210;-82
2022/01/01 13:44:28;;;;;;;6.70;3.50;;;;;;;;;;5086900;28;20244;-82
2022/01/01 13:47:02;;;;;;;9.93;4.97;;;;;;;;;;5092777;28;20205;-81
2022/01/01 13:49:38;;;;;;;11.60;3.47;;;;;;;;;;5091171;28;20763;-81
2022/01/01 13:52:05;;;;;;;6.33;3.40;;;;;;;;;;5094207;28;20198;-81
2022/01/01 13:54:36;;;;;;;8.63;3.23;;;;;;;;;;5090402;28;20232;-82
2022/01/01 13:57:05;;;;;;;9.97;3.30;;;;;;;;;;5083962;28;20230;-82
2022/01/01 13:59:34;;;;;;;6.23;3.70;;;;;;;;;;5091038;28;20206;-82
2022/01/01 14:02:05;;;;;;;6.87;3.83;;;;;;;;;;5087256;28;20202;-84
2022/01/01 14:04:36;;;;;;;8.50;3.67;;;;;;;;;;5085319;28;20282;-81
2022/01/01 14:07:04;;;;;;;8.53;4.10;;;;;;;;;;5091562;28;20205;-84
2022/01/01 14:09:31;;;;;;;8.27;3.70;;;;;;;;;;5092305;28;20218;-82
2022/01/01 14:11:58;;;;;;;5.93;3.17;;;;;;;;;;5081205;28;20776;-80
2022/01/01 14:14:29;;;;;;;8.80;3.43;;;;;;;;;;5083708;28;20348;-80
2022/01/01 14:16:58;;;;;;;10.03;4.27;;;;;;;;;;5088073;28;20213;-82
2022/01/01 14:19:25;;;;;;;9.00;3.70;;;;;;;;;;5089052;28;20233;-81
2022/01/01 14:21:54;;;;;;;8.60;3.77;;;;;;;;;;5085772;28;20205;-81
2022/01/01 14:24:22;;;;;;;8.83;4.27;;;;;;;;;;5088259;28;20236;-81
2022/01/01 14:26:51;;;;;;;7.03;3.40;;;;;;;;;;5082915;28;20225;-82
2022/01/01 14:29:22;;;;;;;8.03;3.93;;;;;;;;;;5085008;28;20226;-84
2022/01/01 14:31:49;;;;;;;7.57;3.70;;;;;;;;;;5090421;28;20270;-80
2022/01/01 14:34:18;;;;;;;5.43;3.33;;;;;;;;;;5084549;28;20648;-82
2022/01/01 14:36:46;;;;;;;5.13;3.00;;;;;;;;;;5087417;28;20216;-82
2022/01/01 14:39:13;;;;;;;6.73;3.63;;;;;;;;;;5087840;28;20236;-82
2022/01/01 14:41:40;;;;;;;9.90;3.60;;;;;;;;;;5085815;28;20205;-83
2022/01/01 14:44:08;;;;;;;6.80;3.40;;;;;;;;;;5083541;28;20281;-80
2022/01/01 14:46:40;;;;;;;29.17;11.37;;;;;;;;;;5091350;28;20198;-82
2022/01/01 14:49:08;;;;;;;6.83;2.77;;;;;;;;;;5087774;28;20235;-83
2022/01/01 14:51:45;;;;;;;6.03;2.90;;;;;;;;;;5090164;28;20207;-82
2022/01/01 14:54:19;;;;;;;6.00;2.80;;;;;;;;;;5089268;28;20216;-82
2022/01/01 14:56:52;;;;;;;5.63;3.00;;;;;;;;;;5087204;28;20225;-82
2022/01/01 14:59:20;;;;;;;9.40;3.00;;;;;;;;;;5079766;28;20657;-83
2022/01/01 15:01:49;;;;;;;5.23;2.90;;;;;;;;;;5081810;28;20216;-82
2022/01/01 15:04:19;;;;;;;5.77;3.10;;;;;;;;;;5084728;28;20239;-82
2022/01/01 15:06:48;;;;;;;3.90;2.60;;;;;;;;;;5082295;28;20198;-81
2022/01/01 15:09:16;;;;;;;10.63;3.10;;;;;;;;;;5086033;28;20304;-81
2022/01/01 15:11:43;;;;;;;5.97;3.37;;;;;;;;;;5086585;28;20672;-82
2022/01/01 15:14:10;;;;;;;6.30;3.00;;;;;;;;;;5081765;28;20570;-82
2022/01/01 15:16:38;;;;;;;6.10;2.80;;;;;;;;;;5084527;28;20622;-82
2022/01/01 15:19:05;;;;;;;7.23;3.07;;;;;;;;;;5085556;28;20367;-81
2022/01/01 15:21:39;;;;;;;5.57;2.80;;;;;;;;;;5084678;28;20305;-82
2022/01/01 15:24:08;;;;;;;8.13;3.90;;;;;;;;;;5083576;28;20671;-80
2022/01/01 15:26:35;;;;;;;12.40;6.03;;;;;;;;;;5086305;28;20244;-80
2022/01/01 15:29:13;;;;;;;7.63;3.27;;;;;;;;;;5082383;28;20225;-80
2022/01/01 15:33:10;;;;;;;6.80;3.50;;;;;;;;;;5089616;28;20221;-80
2022/01/01 15:34:30;;;;;;;5.03;2.97;;;;;;;;;;5088271;28;20499;-80
2022/01/01 15:37:02;;;;;;;6.90;3.03;;;;;;;;;;5084988;28;20472;-81
2022/01/01 15:39:32;;;;;;;5.53;3.20;;;;;;;;;;5087121;28;20735;-81
2022/01/01 15:44:50;;;;;;;9.90;3.27;;;;;;;;;;5072556;28;20201;-81
2022/01/01 15:47:18;;;;;;;24.20;8.27;;;;;;;;;;5090811;28;20229;-81
2022/01/01 15:49:46;;;;;;;48.90;15.50;;;;;;;;;;5090120;28;20213;-81
2022/01/01 15:52:18;;;;;;;24.93;8.13;;;;;;;;;;5091700;28;20218;-81
2022/01/01 15:54:47;;;;;;;11.57;4.73;;;;;;;;;;5090150;28;20213;-81
2022/01/01 15:57:17;;;;;;;7.27;3.60;;;;;;;;;;5089708;28;20232;-83
2022/01/01 15:59:50;;;;;;;9.90;3.60;;;;;;;;;;5089410;28;20296;-82
2022/01/01 16:02:23;;;;;;;12.73;3.80;;;;;;;;;;5092036;28;20215;-82
2022/01/01 16:05:00;;;;;;;8.63;3.47;;;;;;;;;;5091291;28;20213;-81
2022/01/01 16:07:28;;;;;;;8.83;4.17;;;;;;;;;;5090276;28;20259;-82
2022/01/01 16:09:59;;;;;;;12.90;4.80;;;;;;;;;;5098015;28;20206;-83
2022/01/01 16:12:28;;;;;;;9.60;4.57;;;;;;;;;;5100332;28;20212;-82
2022/01/01 16:15:03;;;;;;;6.57;3.83;;;;;;;;;;5097545;28;20285;-83
2022/01/01 16:17:32;;;;;;;7.77;4.13;;;;;;;;;;5098159;28;20224;-81
2022/01/01 16:20:00;;;;;;;7.23;3.70;;;;;;;;;;5095390;28;20200;-82
2022/01/01 16:22:27;;;;;;;6.67;3.83;;;;;;;;;;5102033;28;20214;-82
2022/01/01 16:24:55;;;;;;;8.60;4.57;;;;;;;;;;5098758;28;20306;-83
2022/01/01 16:27:25;;;;;;;7.73;3.37;;;;;;;;;;5102828;28;20265;-82
2022/01/01 16:29:52;;;;;;;6.63;3.40;;;;;;;;;;5101626;28;20190;-81
2022/01/01 16:32:21;;;;;;;8.87;3.90;;;;;;;;;;5095354;28;20198;-81
2022/01/01 16:34:50;;;;;;;7.50;4.27;;;;;;;;;;5096741;28;20197;-82
2022/01/01 16:37:17;;;;;;;8.67;4.27;;;;;;;;;;5093308;28;20696;-81
2022/01/01 16:39:45;;;;;;;14.53;4.87;;;;;;;;;;5097321;28;20202;-83
2022/01/01 16:42:13;;;;;;;5.37;3.37;;;;;;;;;;5096793;28;20289;-83
2022/01/01 16:44:48;;;;;;;7.27;3.13;;;;;;;;;;5092449;28;20206;-81
2022/01/01 16:47:18;;;;;;;11.23;5.03;;;;;;;;;;5095962;28;20757;-82
2022/01/01 16:49:47;;;;;;;12.00;5.47;;;;;;;;;;5095516;28;20208;-81
2022/01/01 16:52:19;;;;;;;12.10;5.97;;;;;;;;;;5094676;28;20654;-82
2022/01/01 16:54:47;;;;;;;15.37;6.53;;;;;;;;;;5094806;28;20235;-83
2022/01/01 16:57:19;;;;;;;12.73;6.30;;;;;;;;;;5094231;28;20221;-83
2022/01/01 16:59:58;;;;;;;12.57;5.30;;;;;;;;;;5096635;28;20738;-82
2022/01/01 17:02:32;;;;;;;8.50;3.87;;;;;;;;;;5093936;28;20220;-83
2022/01/01 17:05:04;;;;;;;9.37;4.50;;;;;;;;;;5095017;28;20202;-83
2022/01/01 17:07:34;;;;;;;11.97;5.70;;;;;;;;;;5094031;28;20308;-84
2022/01/01 17:10:01;;;;;;;16.63;8.37;;;;;;;;;;5089568;28;20218;-83
2022/01/01 17:12:30;;;;;;;11.20;6.03;;;;;;;;;;5092462;28;20194;-83
2022/01/01 17:15:01;;;;;;;10.10;4.67;;;;;;;;;;5093868;28;20296;-82
2022/01/01 17:17:33;;;;;;;8.07;3.87;;;;;;;;;;5097310;28;20253;-82
2022/01/01 17:20:03;;;;;;;8.90;3.83;;;;;;;;;;5095158;28;20296;-82